Time;durP1;ratioP1;P1;durP2;ratioP2;P2;SDS_P1;SDS_P2;PMS_P1;PMS_P2;Temp;Humidity;BMP_temperature;BMP_pressure;BME280_temperature;BME280_humidity;BME280_pressure;Samples;Min_cycle;Max_cycle;Signal;HPM_P1;HPM_P2
2022/07/27 00:01:08;;;;;;;11.20;6.80;;;;;;;17.56;97.57;98519.03;4484631;31;20104;-70
2022/07/27 00:03:36;;;;;;;10.13;6.87;;;;;;;17.61;96.79;98518.44;4485134;31;20481;-70
2022/07/27 00:06:03;;;;;;;9.65;6.75;;;;;;;17.61;96.89;98519.28;4484699;31;20091;-70
2022/07/27 00:08:30;;;;;;;8.55;6.43;;;;;;;17.61;96.22;98521.09;4484762;31;20084;-70
2022/07/27 00:10:58;;;;;;;11.38;6.15;;;;;;;17.62;95.28;98520.09;4484458;31;20097;-70
2022/07/27 00:13:25;;;;;;;7.22;6.12;;;;;;;17.61;95.06;98529.87;4484662;31;20582;-70
2022/07/27 00:15:53;;;;;;;9.45;6.50;;;;;;;17.57;94.58;98525.97;4484458;31;20224;-70
2022/07/27 00:18:21;;;;;;;7.57;5.60;;;;;;;17.53;94.22;98527.34;4484604;31;20104;-70
2022/07/27 00:20:48;;;;;;;7.07;5.62;;;;;;;17.56;93.36;98530.47;4484515;31;20100;-70
2022/07/27 00:23:15;;;;;;;10.43;5.95;;;;;;;17.55;92.99;98531.44;4483915;32;20450;-70
2022/07/27 00:25:42;;;;;;;7.90;5.47;;;;;;;17.67;92.16;98536.28;4484457;31;20151;-70
2022/07/27 00:28:09;;;;;;;8.45;5.53;;;;;;;17.66;91.95;98531.97;4484539;31;20081;-70
2022/07/27 00:30:36;;;;;;;7.68;5.70;;;;;;;17.64;91.80;98533.97;4484362;32;20161;-70
2022/07/27 00:33:04;;;;;;;8.07;5.87;;;;;;;17.62;91.52;98533.34;4484174;32;20088;-70
2022/07/27 00:35:32;;;;;;;6.82;5.30;;;;;;;17.61;91.34;98535.19;4482964;32;20459;-70
2022/07/27 00:38:01;;;;;;;9.77;5.97;;;;;;;17.59;91.26;98533.72;4484170;32;20115;-70
2022/07/27 00:40:29;;;;;;;7.85;5.57;;;;;;;17.59;90.92;98529.22;4484228;31;20145;-70
2022/07/27 00:42:56;;;;;;;10.27;4.93;;;;;;;17.60;90.67;98527.44;4484203;31;20093;-70
2022/07/27 00:45:23;;;;;;;7.80;5.60;;;;;;;17.62;90.25;98528.84;4484137;31;20091;-70
2022/07/27 00:47:50;;;;;;;7.37;5.37;;;;;;;17.60;90.25;98519.47;4484130;31;20145;-70
2022/07/27 00:50:21;;;;;;;10.20;5.43;;;;;;;17.59;90.29;98525.78;4483965;32;20084;-70
2022/07/27 00:52:49;;;;;;;6.80;5.20;;;;;;;17.59;90.05;98528.44;4483769;32;20092;-70
2022/07/27 00:55:16;;;;;;;9.05;5.62;;;;;;;17.56;90.13;98526.97;4482556;32;20104;-70
2022/07/27 00:57:43;;;;;;;9.90;5.87;;;;;;;17.55;90.22;98530.66;4484601;32;20092;-70
2022/07/27 01:00:26;;;;;;;8.30;5.50;;;;;;;17.53;90.37;98535.28;4486132;31;20096;-70
2022/07/27 01:02:54;;;;;;;7.32;5.80;;;;;;;17.45;90.76;98528.28;4486122;32;20089;-70
2022/07/27 01:05:23;;;;;;;7.37;5.40;;;;;;;17.43;90.68;98527.66;4486045;31;20092;-70
2022/07/27 01:08:03;;;;;;;9.98;5.87;;;;;;;17.39;91.30;98539.63;4486213;31;20562;-70
2022/07/27 01:10:31;;;;;;;8.18;5.82;;;;;;;17.37;92.07;98536.34;4486157;31;20096;-70
2022/07/27 01:12:58;;;;;;;9.93;6.43;;;;;;;17.31;92.82;98534.47;4486153;31;20101;-70
2022/07/27 01:15:25;;;;;;;10.52;6.07;;;;;;;17.30;92.97;98538.91;4486018;32;20104;-70
2022/07/27 01:17:52;;;;;;;7.85;5.68;;;;;;;17.25;93.37;98540.50;4485798;31;20103;-70
2022/07/27 01:20:19;;;;;;;11.27;5.95;;;;;;;17.24;93.02;98541.50;4486217;31;20127;-70
2022/07/27 01:22:47;;;;;;;7.95;5.70;;;;;;;17.24;92.96;98541.50;4485869;31;20465;-70
2022/07/27 01:25:14;;;;;;;10.15;5.97;;;;;;;17.20;92.72;98544.50;4486212;31;20168;-70
2022/07/27 01:27:41;;;;;;;9.85;6.07;;;;;;;17.21;92.22;98540.03;4480943;32;154932;-70
2022/07/27 01:30:25;;;;;;;9.20;6.12;;;;;;;17.14;92.23;98539.97;4486240;31;20097;-70
2022/07/27 01:33:04;;;;;;;8.07;4.57;;;;;;;17.10;92.22;98538.69;4485725;31;20156;-70
2022/07/27 01:35:32;;;;;;;8.38;5.72;;;;;;;17.07;91.65;98549.62;4486030;32;20141;-70
2022/07/27 01:37:59;;;;;;;7.50;5.50;;;;;;;17.06;91.97;98544.53;4485659;31;20100;-70
2022/07/27 01:40:26;;;;;;;6.85;5.18;;;;;;;16.99;92.65;98547.09;4485747;31;20124;-70
2022/07/27 01:42:54;;;;;;;8.25;5.82;;;;;;;16.92;92.73;98552.28;4484593;32;20104;-70
2022/07/27 01:45:21;;;;;;;8.73;5.32;;;;;;;16.84;93.14;98552.37;4485864;31;20111;-70
2022/07/27 01:47:48;;;;;;;9.35;5.68;;;;;;;16.82;93.16;98551.72;4485644;31;20096;-70
2022/07/27 01:50:15;;;;;;;6.72;5.55;;;;;;;16.71;93.85;98558.28;4485832;32;20100;-70
2022/07/27 01:52:43;;;;;;;7.70;5.43;;;;;;;16.65;94.02;98540.50;4485686;31;20092;-70
2022/07/27 01:55:10;;;;;;;8.57;5.28;;;;;;;16.68;93.77;98533.03;4485693;31;20461;-70
2022/07/27 01:57:38;;;;;;;9.32;5.37;;;;;;;16.67;93.13;98535.84;4485477;31;20108;-70
2022/07/27 02:00:09;;;;;;;6.87;5.62;;;;;;;16.62;93.48;98540.84;4485639;31;20123;-70
2022/07/27 02:02:38;;;;;;;10.65;5.43;;;;;;;16.59;93.44;98536.75;4485648;31;20114;-70
2022/07/27 02:05:07;;;;;;;7.45;5.35;;;;;;;16.57;93.51;98532.66;4485534;32;20103;-70
2022/07/27 02:07:34;;;;;;;5.87;5.25;;;;;;;16.61;93.06;98533.94;4485769;31;20149;-70
2022/07/27 02:10:01;;;;;;;7.85;5.18;;;;;;;16.62;92.38;98535.56;4485386;32;20096;-70
2022/07/27 02:12:35;;;;;;;9.82;5.03;;;;;;;16.61;92.12;98539.22;4485872;32;20100;-70
2022/07/27 02:15:09;;;;;;;8.35;4.78;;;;;;;16.65;91.62;98529.91;4485562;32;20084;-70
2022/07/27 02:17:42;;;;;;;7.20;4.82;;;;;;;16.63;91.72;98531.94;4485566;31;20080;-70
2022/07/27 02:20:13;;;;;;;7.80;5.80;;;;;;;16.62;92.01;98531.13;4485687;31;20515;-70
2022/07/27 02:22:40;;;;;;;10.00;5.28;;;;;;;16.56;92.66;98537.09;4485442;31;20087;-70
2022/07/27 02:25:08;;;;;;;8.32;5.10;;;;;;;16.57;92.71;98532.66;4485392;31;20394;-70
2022/07/27 02:27:36;;;;;;;10.15;5.82;;;;;;;16.49;92.97;98542.31;4485426;31;20128;-70
2022/07/27 02:30:04;;;;;;;11.00;5.15;;;;;;;16.52;93.04;98541.12;4485491;31;20093;-70
2022/07/27 02:32:31;;;;;;;9.55;5.78;;;;;;;16.49;93.19;98538.84;4485404;32;20113;-70
2022/07/27 02:34:59;;;;;;;9.13;5.25;;;;;;;16.48;93.28;98537.19;4485540;32;20130;-70
2022/07/27 02:37:29;;;;;;;8.45;4.93;;;;;;;16.52;92.58;98537.66;4485386;31;20092;-70
2022/07/27 02:39:56;;;;;;;9.15;5.22;;;;;;;16.53;90.97;98536.66;4484135;32;20120;-70
2022/07/27 02:42:23;;;;;;;7.18;4.37;;;;;;;16.61;89.33;98533.94;4484284;32;20095;-70
2022/07/27 02:44:50;;;;;;;7.00;4.82;;;;;;;16.61;88.49;98528.66;4485476;31;20099;-70
2022/07/27 02:47:17;;;;;;;6.80;4.40;;;;;;;16.70;87.82;98527.56;4485415;32;20084;-70
2022/07/27 02:49:44;;;;;;;8.02;4.93;;;;;;;16.71;87.67;98523.06;4485332;32;20433;-70
2022/07/27 02:52:12;;;;;;;12.95;5.40;;;;;;;16.74;87.29;98528.81;4485445;32;20534;-70
2022/07/27 02:54:39;;;;;;;6.80;4.25;;;;;;;16.75;86.35;98530.47;4484901;32;20143;-70
2022/07/27 02:57:06;;;;;;;12.90;5.15;;;;;;;16.83;85.42;98527.72;4485402;32;20466;-70
2022/07/27 02:59:33;;;;;;;8.63;4.65;;;;;;;16.95;84.51;98525.47;4485240;31;20092;-70
2022/07/27 03:02:00;;;;;;;8.68;4.90;;;;;;;16.98;84.23;98545.44;4485498;32;20112;-70
2022/07/27 03:04:28;;;;;;;7.65;5.22;;;;;;;17.00;84.06;98546.06;4485244;31;20581;-70
2022/07/27 03:06:55;;;;;;;6.53;5.10;;;;;;;17.08;83.64;98543.34;4485249;31;20093;-70
2022/07/27 03:09:22;;;;;;;5.97;4.97;;;;;;;17.07;83.50;98544.34;4485219;31;20213;-70
2022/07/27 03:12:00;;;;;;;12.05;4.97;;;;;;;17.12;83.14;98539.34;4485340;31;20146;-70
2022/07/27 03:14:27;;;;;;;7.35;4.80;;;;;;;17.16;82.87;98534.47;4485090;32;20084;-70
2022/07/27 03:16:54;;;;;;;10.27;5.10;;;;;;;17.09;82.89;98539.69;4485200;32;20096;-70
2022/07/27 03:19:21;;;;;;;4.93;4.43;;;;;;;17.13;82.62;98535.66;4484878;32;20123;-70
2022/07/27 03:21:56;;;;;;;7.05;4.28;;;;;;;17.13;82.53;98535.66;4484709;32;20080;-70
2022/07/27 03:24:23;;;;;;;5.70;4.20;;;;;;;17.10;82.76;98532.56;4483534;32;20526;-70
2022/07/27 03:26:50;;;;;;;6.93;4.78;;;;;;;17.11;82.76;98534.19;4485173;32;20575;-70
2022/07/27 03:29:17;;;;;;;9.82;4.87;;;;;;;17.08;82.78;98542.50;4484949;31;20100;-70
2022/07/27 03:31:44;;;;;;;6.87;4.75;;;;;;;17.02;82.99;98546.72;4485193;31;20153;-70
2022/07/27 03:34:12;;;;;;;7.37;4.60;;;;;;;17.08;82.69;98545.16;4484812;32;20156;-70
2022/07/27 03:36:40;;;;;;;9.60;5.43;;;;;;;17.10;82.43;98538.69;4485026;31;20109;-70
2022/07/27 03:39:07;;;;;;;5.68;4.47;;;;;;;17.20;82.00;98533.91;4485086;32;20124;-70
2022/07/27 03:41:34;;;;;;;6.65;4.97;;;;;;;17.21;81.69;98545.31;4484956;32;20578;-70
2022/07/27 03:44:02;;;;;;;6.03;4.45;;;;;;;17.27;81.51;98546.41;4484944;31;20148;-70
2022/07/27 03:46:29;;;;;;;5.45;4.20;;;;;;;17.37;80.85;98549.59;4484721;31;20545;-70
2022/07/27 03:48:56;;;;;;;8.07;4.55;;;;;;;17.39;80.38;98550.22;4484923;32;20355;-70
2022/07/27 03:51:24;;;;;;;6.30;4.87;;;;;;;17.49;79.81;98548.09;4483638;32;20100;-70
2022/07/27 03:53:51;;;;;;;6.03;4.65;;;;;;;17.51;79.47;98540.78;4484418;32;20088;-70
2022/07/27 03:56:18;;;;;;;7.37;4.85;;;;;;;17.62;79.18;98541.28;4484932;31;20092;-70
2022/07/27 03:58:45;;;;;;;5.75;4.68;;;;;;;17.64;78.72;98534.81;4484658;32;20149;-70
2022/07/27 04:01:12;;;;;;;10.68;4.90;;;;;;;17.67;79.04;98530.97;4484650;32;20095;-70
2022/07/27 04:03:40;;;;;;;5.68;5.00;;;;;;;17.75;78.94;98544.09;4484741;31;20101;-70
2022/07/27 04:06:10;;;;;;;7.35;4.93;;;;;;;17.79;78.60;98548.00;4484637;31;20129;-70
2022/07/27 04:08:37;;;;;;;7.68;4.85;;;;;;;17.86;78.03;98556.00;4484473;31;20219;-70
2022/07/27 04:11:05;;;;;;;9.20;4.82;;;;;;;17.94;77.65;98550.63;4484704;32;20092;-70
2022/07/27 04:13:37;;;;;;;11.73;5.20;;;;;;;18.03;77.11;98548.62;4484608;31;20080;-70
2022/07/27 04:16:04;;;;;;;5.53;4.45;;;;;;;18.19;76.58;98556.31;4484641;32;20088;-70
2022/07/27 04:18:31;;;;;;;7.32;5.05;;;;;;;18.26;76.00;98557.22;4484444;31;20122;-70
2022/07/27 04:21:00;;;;;;;7.07;5.65;;;;;;;18.39;75.40;98558.31;4484474;32;20478;-70
2022/07/27 04:23:28;;;;;;;6.53;4.80;;;;;;;18.46;75.11;98559.19;4484164;31;20089;-70
2022/07/27 04:25:59;;;;;;;8.75;4.70;;;;;;;18.62;75.58;98566.88;4484332;31;20700;-70
2022/07/27 04:28:27;;;;;;;6.75;5.10;;;;;;;18.82;74.67;98562.69;4484463;31;20096;-70
2022/07/27 04:30:54;;;;;;;7.45;4.72;;;;;;;18.87;73.03;98566.41;4484357;31;20104;-70
2022/07/27 04:33:21;;;;;;;6.75;4.82;;;;;;;19.07;73.27;98561.22;4486115;32;20131;-70
2022/07/27 04:35:48;;;;;;;6.85;4.72;;;;;;;19.09;72.44;98568.97;4486223;31;20119;-70
2022/07/27 04:38:15;;;;;;;7.35;4.57;;;;;;;19.21;72.09;98558.63;4484430;31;20121;-69
2022/07/27 04:40:43;;;;;;;8.38;4.80;;;;;;;19.18;71.51;98559.00;4482291;32;20092;-70
2022/07/27 04:43:10;;;;;;;8.00;5.05;;;;;;;19.42;71.92;98560.31;4479434;32;20160;-70
2022/07/27 04:45:38;;;;;;;6.93;4.57;;;;;;;19.57;71.09;98562.84;4485815;31;20526;-70
2022/07/27 04:48:07;;;;;;;9.13;5.05;;;;;;;19.72;69.96;98566.13;4484156;31;20101;-70
2022/07/27 04:50:38;;;;;;;6.00;4.50;;;;;;;19.88;69.16;98572.12;4485351;31;20157;-70
2022/07/27 04:53:07;;;;;;;5.32;4.62;;;;;;;19.79;68.97;98571.50;4484143;31;20169;-70
2022/07/27 04:55:34;;;;;;;7.93;4.70;;;;;;;20.02;68.26;98571.94;4483256;31;20145;-70
2022/07/27 04:58:01;;;;;;;8.13;4.60;;;;;;;20.12;67.51;98570.72;4484212;31;20124;-70
2022/07/27 05:00:28;;;;;;;6.85;4.37;;;;;;;20.11;67.31;98571.75;4481893;32;20558;-70
2022/07/27 05:02:55;;;;;;;8.00;5.15;;;;;;;20.21;66.37;98572.97;4484683;31;20092;-70
2022/07/27 05:05:23;;;;;;;6.72;4.80;;;;;;;20.30;66.13;98583.41;4484851;32;20100;-70
2022/07/27 05:07:50;;;;;;;9.23;4.82;;;;;;;20.51;65.25;98582.38;4481511;32;20108;-70
2022/07/27 05:10:17;;;;;;;6.85;4.90;;;;;;;20.58;65.41;98577.88;4480331;31;20100;-70
2022/07/27 05:12:47;;;;;;;5.22;4.72;;;;;;;20.79;65.00;98584.00;4484082;31;20441;-70
2022/07/27 05:15:15;;;;;;;8.07;5.05;;;;;;;20.92;63.48;98583.97;4482591;32;20092;-70
2022/07/27 05:17:42;;;;;;;6.32;4.93;;;;;;;21.10;62.73;98578.00;4478304;32;20903;-70
2022/07/27 05:20:10;;;;;;;7.05;5.15;;;;;;;21.37;62.76;98580.56;4483137;32;20104;-70
2022/07/27 05:22:38;;;;;;;6.00;5.20;;;;;;;21.37;59.99;98580.56;4484083;32;20094;-70
2022/07/27 05:25:06;;;;;;;12.73;4.80;;;;;;;21.43;59.57;98588.50;4481145;32;20100;-70
2022/07/27 05:27:36;;;;;;;8.52;4.87;;;;;;;21.66;60.33;98589.06;4482778;31;20104;-70
2022/07/27 05:30:21;;;;;;;7.50;5.30;;;;;;;21.89;58.79;98591.19;4480689;32;20100;-70
2022/07/27 05:32:48;;;;;;;6.82;4.82;;;;;;;22.03;58.91;98594.56;4484407;31;20084;-70
2022/07/27 05:35:15;;;;;;;7.10;3.90;;;;;;;22.09;58.20;98602.53;4482793;31;21434;-70
2022/07/27 05:37:42;;;;;;;6.82;4.60;;;;;;;21.97;58.13;98601.59;4482945;32;20096;-70
2022/07/27 05:40:11;;;;;;;7.32;4.22;;;;;;;22.14;57.17;98600.03;4483682;31;20084;-70
2022/07/27 05:42:41;;;;;;;6.65;4.12;;;;;;;22.19;56.08;98602.06;4480906;31;20615;-70
2022/07/27 05:45:10;;;;;;;6.10;4.30;;;;;;;22.20;55.98;98597.56;4484195;32;20114;-70
2022/07/27 05:47:38;;;;;;;7.30;4.25;;;;;;;22.33;55.66;98598.28;4480081;31;20108;-70
2022/07/27 05:50:06;;;;;;;8.88;4.18;;;;;;;22.48;55.24;98605.13;4481366;31;20183;-70
2022/07/27 05:52:33;;;;;;;6.03;4.22;;;;;;;22.77;55.72;98609.00;4485001;32;20092;-70
2022/07/27 05:55:01;;;;;;;5.60;3.90;;;;;;;22.67;54.06;98611.34;4482497;31;20380;-70
2022/07/27 05:57:28;;;;;;;7.68;4.32;;;;;;;22.89;53.88;98610.94;4481858;32;20343;-70
2022/07/27 05:59:57;;;;;;;6.40;3.80;;;;;;;23.08;52.94;98606.44;4481093;32;20482;-70
2022/07/27 06:02:26;;;;;;;6.20;3.60;;;;;;;23.03;52.25;98615.91;4484427;31;20088;-70
2022/07/27 06:04:53;;;;;;;5.95;3.62;;;;;;;22.96;51.14;98614.34;4482645;31;20126;-70
2022/07/27 06:10:07;;;;;;;5.47;3.80;;;;;;;23.20;51.39;98621.53;4482332;31;20747;-70
2022/07/27 06:12:39;;;;;;;5.80;3.45;;;;;;;23.34;49.68;98629.37;4482570;31;20167;-70
2022/07/27 06:15:08;;;;;;;11.35;3.58;;;;;;;23.35;49.08;98629.16;4483384;32;20080;-70
2022/07/27 06:17:35;;;;;;;5.57;3.22;;;;;;;23.55;48.21;98626.25;4482851;31;20097;-70
2022/07/27 06:20:04;;;;;;;4.43;2.90;;;;;;;23.73;47.45;98627.25;4483023;31;20155;-70
2022/07/27 06:22:32;;;;;;;5.37;2.72;;;;;;;23.76;46.73;98637.50;4480969;31;20901;-70
2022/07/27 06:24:59;;;;;;;9.88;3.62;;;;;;;23.56;46.86;98635.91;4480766;31;20732;-70
2022/07/27 06:27:26;;;;;;;4.65;2.60;;;;;;;23.72;47.59;98631.81;4481062;31;20157;-70
2022/07/27 06:29:56;;;;;;;3.70;3.22;;;;;;;23.72;44.59;98622.94;4478522;32;20164;-70
2022/07/27 06:32:23;;;;;;;5.90;3.08;;;;;;;23.97;46.75;98625.53;4480397;31;20123;-70
2022/07/27 06:34:50;;;;;;;4.80;3.08;;;;;;;23.95;47.16;98627.59;4481852;31;20080;-70
2022/07/27 06:37:17;;;;;;;4.82;3.05;;;;;;;23.87;46.56;98631.41;4476563;32;20903;-70
2022/07/27 06:39:46;;;;;;;4.37;3.20;;;;;;;24.11;46.53;98628.81;4479912;32;20100;-70
2022/07/27 06:42:15;;;;;;;4.45;2.90;;;;;;;24.39;45.96;98630.03;4481506;31;20119;-70
2022/07/27 06:44:43;;;;;;;5.80;2.83;;;;;;;24.55;45.19;98621.31;4484229;31;20096;-71
2022/07/27 06:47:10;;;;;;;3.97;3.08;;;;;;;24.53;44.77;98623.44;4483914;32;20446;-71
2022/07/27 06:49:37;;;;;;;5.12;2.50;;;;;;;24.64;44.86;98624.50;4481517;32;20568;-71
2022/07/27 06:52:06;;;;;;;3.87;2.83;;;;;;;24.44;45.01;98630.97;4481467;32;20097;-71
2022/07/27 06:54:33;;;;;;;7.22;3.40;;;;;;;24.40;44.75;98629.81;4477939;32;20104;-71
2022/07/27 06:57:00;;;;;;;5.45;3.20;;;;;;;24.35;45.85;98627.00;4477281;32;20169;-71
2022/07/27 06:59:28;;;;;;;6.15;3.15;;;;;;;24.51;45.03;98614.81;4483341;32;20104;-71
2022/07/27 07:02:09;;;;;;;6.57;2.95;;;;;;;24.42;44.30;98618.84;4481526;32;20118;-71
2022/07/27 07:04:36;;;;;;;4.22;2.70;;;;;;;24.64;43.97;98621.81;4482593;32;20116;-71
2022/07/27 07:07:04;;;;;;;4.47;2.97;;;;;;;24.85;45.90;98625.00;4480766;32;20167;-71
2022/07/27 07:09:33;;;;;;;4.45;2.60;;;;;;;25.01;45.04;98620.75;4479721;32;20138;-71
2022/07/27 07:12:01;;;;;;;4.53;2.70;;;;;;;25.00;44.15;98617.28;4480155;32;20108;-70
2022/07/27 07:14:28;;;;;;;4.40;2.72;;;;;;;25.03;44.06;98622.16;4479511;32;20101;-71
2022/07/27 07:16:55;;;;;;;8.55;2.45;;;;;;;25.02;43.61;98614.37;4482162;31;20131;-71
2022/07/27 07:19:22;;;;;;;5.70;2.62;;;;;;;25.09;43.17;98617.75;4480864;31;20107;-71
2022/07/27 07:21:50;;;;;;;5.65;2.80;;;;;;;25.05;43.43;98619.25;4478575;32;20120;-71
2022/07/27 07:24:17;;;;;;;5.85;2.60;;;;;;;24.90;43.82;98612.50;4474522;31;20123;-71
2022/07/27 07:26:45;;;;;;;8.25;3.00;;;;;;;25.16;42.91;98605.00;4477570;32;20168;-71
2022/07/27 07:29:12;;;;;;;7.47;2.87;;;;;;;25.09;42.49;98610.50;4479633;31;20096;-71
2022/07/27 07:31:39;;;;;;;7.50;3.05;;;;;;;25.38;42.37;98607.09;4483792;31;20441;-71
2022/07/27 07:34:07;;;;;;;6.40;2.60;;;;;;;25.27;42.05;98612.22;4484218;31;20080;-70
2022/07/27 07:36:34;;;;;;;3.75;2.40;;;;;;;25.17;41.51;98609.31;4483153;32;20096;-71
2022/07/27 07:39:01;;;;;;;7.00;3.15;;;;;;;25.26;41.63;98599.84;4481219;31;20172;-71
2022/07/27 07:41:28;;;;;;;3.20;2.60;;;;;;;25.50;40.51;98603.31;4477680;32;20172;-71
2022/07/27 07:43:55;;;;;;;3.40;2.90;;;;;;;25.60;40.22;98596.50;4482932;32;20513;-71
2022/07/27 07:46:23;;;;;;;8.18;2.55;;;;;;;25.78;40.67;98598.19;4484468;31;20096;-71
2022/07/27 07:48:50;;;;;;;5.00;3.15;;;;;;;25.84;38.93;98594.53;4484290;31;20100;-71
2022/07/27 07:51:17;;;;;;;3.67;3.03;;;;;;;25.71;39.89;98600.19;4482968;31;20493;-71
2022/07/27 07:53:44;;;;;;;5.68;3.17;;;;;;;25.53;39.19;98593.16;4483915;31;20111;-71
2022/07/27 07:56:13;;;;;;;5.28;3.37;;;;;;;25.67;38.61;98594.50;4481457;31;20104;-71
2022/07/27 07:58:40;;;;;;;9.38;3.62;;;;;;;25.66;39.09;98598.25;4480566;31;20157;-71
2022/07/27 08:01:07;;;;;;;6.65;3.37;;;;;;;25.68;38.66;98596.94;4478721;32;20486;-70
2022/07/27 08:03:34;;;;;;;7.07;3.33;;;;;;;25.82;38.91;98599.34;4482047;32;20101;-71
2022/07/27 08:06:01;;;;;;;5.07;3.55;;;;;;;26.06;38.66;98593.88;4481344;31;20153;-71
2022/07/27 08:08:29;;;;;;;7.37;3.60;;;;;;;26.10;37.94;98592.34;4481070;32;20092;-71
2022/07/27 08:10:56;;;;;;;5.05;3.85;;;;;;;26.23;38.93;98589.34;4483255;31;20108;-71
2022/07/27 08:13:23;;;;;;;6.93;4.47;;;;;;;26.08;36.40;98594.47;4477533;31;20097;-71
2022/07/27 08:15:51;;;;;;;6.28;4.95;;;;;;;26.12;37.43;98592.91;4484167;31;20493;-71
2022/07/27 08:18:19;;;;;;;6.45;5.35;;;;;;;26.18;36.87;98590.06;4482347;31;20104;-71
2022/07/27 08:20:47;;;;;;;13.00;6.05;;;;;;;26.38;37.73;98581.50;4478176;32;20172;-71
2022/07/27 08:23:14;;;;;;;10.10;7.00;;;;;;;26.33;36.16;98584.13;4480927;32;20466;-71
2022/07/27 08:25:41;;;;;;;8.20;5.22;;;;;;;26.36;35.90;98590.91;4480890;32;20113;-71
2022/07/27 08:28:09;;;;;;;10.60;8.07;;;;;;;26.35;34.71;98584.69;4480209;31;20107;-71
2022/07/27 08:30:36;;;;;;;9.45;6.28;;;;;;;26.42;33.94;98578.34;4482249;31;20100;-71
2022/07/27 08:33:06;;;;;;;15.27;8.20;;;;;;;26.32;34.42;98574.44;4482009;31;20481;-71
2022/07/27 08:35:34;;;;;;;10.57;9.32;;;;;;;26.65;34.61;98571.97;4482912;32;20101;-71
2022/07/27 08:38:04;;;;;;;12.85;9.73;;;;;;;26.89;34.32;98586.06;4477330;32;20123;-71
2022/07/27 08:40:32;;;;;;;14.18;8.77;;;;;;;26.93;34.35;98576.41;4479758;32;20123;-71
2022/07/27 08:43:09;;;;;;;20.05;9.85;;;;;;;27.04;34.39;98567.41;4482346;31;20089;-71
2022/07/27 08:45:36;;;;;;;12.88;10.60;;;;;;;27.09;34.33;98588.19;4483075;31;20171;-71
2022/07/27 08:48:04;;;;;;;16.52;10.25;;;;;;;27.11;33.73;98571.81;4483038;31;20493;-71
2022/07/27 08:50:33;;;;;;;15.35;10.27;;;;;;;27.09;34.22;98575.53;4479619;31;20269;-70
2022/07/27 08:53:02;;;;;;;15.73;9.45;;;;;;;26.82;34.05;98582.72;4482157;32;20139;-71
2022/07/27 08:55:31;;;;;;;12.30;9.68;;;;;;;27.25;33.34;98565.78;4480784;31;20465;-71
2022/07/27 08:57:59;;;;;;;16.37;11.32;;;;;;;27.58;32.65;98573.97;4479660;31;20181;-71
2022/07/27 09:00:31;;;;;;;15.18;12.80;;;;;;;27.67;31.77;98569.75;4480840;31;20153;-71
2022/07/27 09:02:58;;;;;;;15.50;12.32;;;;;;;27.51;31.67;98573.34;4480200;31;20147;-71
2022/07/27 09:05:28;;;;;;;13.27;10.55;;;;;;;27.51;31.82;98584.13;4476662;32;20120;-71
2022/07/27 09:08:12;;;;;;;12.90;11.43;;;;;;;27.37;32.49;98573.75;4480267;32;20121;-71
2022/07/27 09:10:40;;;;;;;16.85;11.43;;;;;;;27.69;31.68;98575.72;4480449;31;20156;-71
2022/07/27 09:13:23;;;;;;;9.57;8.23;;;;;;;27.67;31.62;98572.44;4479770;31;20493;-71
2022/07/27 09:15:56;;;;;;;10.27;7.85;;;;;;;27.87;30.86;98568.34;4481655;31;20165;-71
2022/07/27 09:18:44;;;;;;;23.92;8.02;;;;;;;28.17;31.81;98564.31;4481142;32;20088;-71
2022/07/27 09:21:19;;;;;;;8.68;6.18;;;;;;;27.93;31.02;98565.44;4481874;31;20242;-71
2022/07/27 09:23:53;;;;;;;10.80;7.30;;;;;;;27.40;31.63;98572.44;4478615;32;20530;-71
2022/07/27 09:26:25;;;;;;;13.20;6.97;;;;;;;27.72;30.81;98577.06;4483563;31;20084;-71
2022/07/27 09:29:11;;;;;;;8.10;6.25;;;;;;;28.05;29.96;98564.47;4484400;32;20153;-71
2022/07/27 09:31:46;;;;;;;27.08;6.60;;;;;;;28.00;30.97;98570.63;4480871;31;20088;-71
2022/07/27 09:34:32;;;;;;;6.32;5.72;;;;;;;27.87;31.65;98571.03;4481786;32;20417;-71
2022/07/27 09:37:05;;;;;;;10.70;6.40;;;;;;;27.82;30.66;98565.59;4483268;31;20089;-71
2022/07/27 09:39:33;;;;;;;7.70;5.90;;;;;;;27.89;31.44;98564.31;4483005;32;20153;-71
2022/07/27 09:42:01;;;;;;;7.75;6.22;;;;;;;28.43;31.50;98562.59;4481828;31;20152;-71
2022/07/27 09:44:36;;;;;;;6.60;5.93;;;;;;;28.15;29.63;98569.97;4484322;32;20156;-71
2022/07/27 09:47:25;;;;;;;9.77;6.15;;;;;;;28.25;29.72;98567.34;4485421;31;20123;-71
2022/07/27 09:49:56;;;;;;;6.70;5.68;;;;;;;28.20;30.23;98566.50;4482508;32;20260;-71
2022/07/27 09:52:27;;;;;;;14.73;5.80;;;;;;;28.21;30.07;98560.84;4479285;32;20201;-71
2022/07/27 09:55:01;;;;;;;10.45;6.15;;;;;;;28.58;30.64;98554.63;4480656;31;20115;-71
2022/07/27 09:57:29;;;;;;;8.23;5.80;;;;;;;28.60;30.14;98557.09;4484367;31;20100;-71
2022/07/27 10:00:14;;;;;;;7.18;5.30;;;;;;;28.54;29.25;98571.56;4484743;31;20108;-71
2022/07/27 10:02:42;;;;;;;7.00;5.65;;;;;;;28.47;29.66;98580.69;4484389;32;20093;-71
2022/07/27 10:05:10;;;;;;;9.68;5.62;;;;;;;28.47;29.51;98569.91;4481608;32;20560;-71
2022/07/27 10:07:41;;;;;;;6.43;5.30;;;;;;;28.83;29.14;98567.47;4482196;32;20134;-71
2022/07/27 10:10:11;;;;;;;7.50;5.80;;;;;;;28.84;28.60;98566.41;4482941;31;20092;-71
2022/07/27 10:12:41;;;;;;;6.43;5.47;;;;;;;28.53;29.40;98569.97;4483108;31;20163;-73
2022/07/27 10:15:10;;;;;;;5.90;5.30;;;;;;;28.54;29.49;98568.87;4482682;32;20100;-72
2022/07/27 10:17:38;;;;;;;8.48;5.87;;;;;;;28.47;29.08;98566.41;4482403;31;20097;-72
2022/07/27 10:20:07;;;;;;;6.15;5.20;;;;;;;28.73;29.11;98567.41;4483681;31;20100;-75
2022/07/27 10:22:53;;;;;;;6.12;5.12;;;;;;;29.11;29.03;98554.63;4481757;31;20552;-72
2022/07/27 10:25:21;;;;;;;8.40;5.22;;;;;;;29.41;28.06;98553.16;4482606;32;20092;-73
2022/07/27 10:28:06;;;;;;;6.90;5.45;;;;;;;29.45;28.20;98558.81;4484327;31;20112;-71
2022/07/27 10:30:34;;;;;;;6.62;5.20;;;;;;;29.52;27.40;98557.50;4482493;31;20088;-73
2022/07/27 10:33:13;;;;;;;5.47;4.97;;;;;;;30.03;28.03;98555.97;4483678;31;20096;-72
2022/07/27 10:35:41;;;;;;;9.57;5.35;;;;;;;30.60;28.25;98546.75;4483412;31;20088;-72
2022/07/27 10:38:15;;;;;;;5.55;4.90;;;;;;;30.74;28.15;98543.47;4484229;31;20167;-72
2022/07/27 10:40:43;;;;;;;7.78;5.28;;;;;;;31.05;26.92;98541.47;4483476;31;20092;-71
2022/07/27 10:43:19;;;;;;;5.97;5.32;;;;;;;31.02;26.63;98544.72;4485108;31;20458;-71
2022/07/27 10:45:48;;;;;;;7.30;4.87;;;;;;;31.40;25.64;98542.38;4483791;31;20076;-72
2022/07/27 10:48:39;;;;;;;6.25;5.65;;;;;;;31.54;25.73;98541.75;4484840;32;20084;-72
2022/07/27 10:51:15;;;;;;;6.78;5.57;;;;;;;31.45;26.01;98531.53;4485095;31;20076;-72
2022/07/27 10:53:44;;;;;;;8.15;5.80;;;;;;;30.53;26.81;98529.19;4484420;31;20084;-73
2022/07/27 10:56:44;;;;;;;9.95;5.15;;;;;;;30.08;27.14;98537.87;4484321;31;20457;-72
2022/07/27 10:59:12;;;;;;;9.05;5.40;;;;;;;29.30;27.67;98535.31;4484881;31;20092;-74
2022/07/27 11:01:56;;;;;;;7.93;5.30;;;;;;;29.69;27.83;98530.28;4484920;31;20153;-73
2022/07/27 11:04:24;;;;;;;7.85;4.82;;;;;;;29.98;27.71;98531.63;4485046;31;20111;-73
2022/07/27 11:06:55;;;;;;;6.22;5.05;;;;;;;29.71;27.44;98527.28;4484704;31;20106;-73
2022/07/27 11:09:43;;;;;;;7.00;5.00;;;;;;;29.39;28.34;98525.62;4485230;31;20157;-73
2022/07/27 11:12:30;;;;;;;6.45;4.68;;;;;;;29.69;28.14;98519.47;4485278;31;20153;-71
2022/07/27 11:14:58;;;;;;;5.75;4.10;;;;;;;29.31;28.01;98524.25;4484692;32;20440;-73
2022/07/27 11:17:27;;;;;;;7.22;5.03;;;;;;;29.11;27.21;98519.56;4484043;32;20409;-73
2022/07/27 11:20:14;;;;;;;5.32;4.78;;;;;;;28.87;28.44;98519.22;4485137;32;20183;-74
2022/07/27 11:22:41;;;;;;;7.50;5.05;;;;;;;28.88;29.35;98528.94;4485042;31;20089;-72
2022/07/27 11:25:29;;;;;;;10.32;4.78;;;;;;;28.92;28.78;98515.72;4485263;31;20092;-73
2022/07/27 11:27:56;;;;;;;7.03;5.12;;;;;;;29.56;27.62;98510.00;4485124;31;20080;-73
2022/07/27 11:30:27;;;;;;;5.45;4.68;;;;;;;30.10;26.84;98518.69;4485211;31;20111;-74
2022/07/27 11:32:55;;;;;;;7.22;4.93;;;;;;;30.81;26.46;98500.69;4484926;31;20118;-73
2022/07/27 11:35:22;;;;;;;5.62;4.72;;;;;;;31.13;26.61;98499.50;4484986;31;20153;-71
2022/07/27 11:38:00;;;;;;;7.95;4.78;;;;;;;31.41;25.08;98505.28;4484787;31;20428;-73
2022/07/27 11:40:28;;;;;;;4.75;4.35;;;;;;;31.73;26.29;98509.44;4484684;32;20084;-72
2022/07/27 11:43:34;;;;;;;6.47;4.95;;;;;;;31.73;24.79;98509.44;4483840;32;20119;-72
2022/07/27 11:46:11;;;;;;;7.43;4.82;;;;;;;31.57;24.72;98504.12;4484947;31;20115;-72